createdAt,value
2023-05-12T00:00:14.165Z,8.60
2023-05-12T00:00:44.338Z,8.60
2023-05-12T00:01:15.696Z,8.60
2023-05-12T00:01:46.311Z,8.60
2023-05-12T00:02:17.570Z,8.60
2023-05-12T00:02:48.248Z,8.60
2023-05-12T00:03:18.853Z,8.60
2023-05-12T00:03:50.051Z,8.60
2023-05-12T00:04:21.391Z,8.60
2023-05-12T00:04:52.353Z,8.60
2023-05-12T00:05:24.069Z,8.60
2023-05-12T00:05:54.281Z,8.60
2023-05-12T00:06:25.633Z,8.60
2023-05-12T00:06:56.357Z,8.60
2023-05-12T00:07:26.845Z,8.70
2023-05-12T00:07:58.000Z,8.70
2023-05-12T00:08:28.832Z,8.70
2023-05-12T00:08:59.933Z,8.70
2023-05-12T00:09:30.961Z,8.70
2023-05-12T00:10:02.177Z,8.70
2023-05-12T00:10:33.154Z,8.70
2023-05-12T00:11:06.006Z,8.70
2023-05-12T00:11:36.140Z,8.70
2023-05-12T00:12:07.130Z,8.70
2023-05-12T00:12:37.005Z,8.70
2023-05-12T00:13:08.253Z,8.70
2023-05-12T00:13:39.284Z,8.70
2023-05-12T00:14:10.090Z,8.70
2023-05-12T00:14:40.856Z,8.70
2023-05-12T00:15:12.653Z,8.70
2023-05-12T00:15:42.813Z,8.70
2023-05-12T00:16:13.936Z,8.70
2023-05-12T00:16:45.140Z,8.70
2023-05-12T00:17:16.020Z,8.70
2023-05-12T00:17:47.299Z,8.70
2023-05-12T00:18:18.062Z,8.70
2023-05-12T00:18:49.144Z,8.70
2023-05-12T00:19:20.049Z,8.70
2023-05-12T00:19:50.951Z,8.70
2023-05-12T00:20:23.183Z,8.70
2023-05-12T00:20:52.716Z,8.70
2023-05-12T00:21:23.858Z,8.70
2023-05-12T00:21:55.356Z,8.70
2023-05-12T00:22:25.854Z,8.70
2023-05-12T00:22:57.590Z,8.70
2023-05-12T00:23:27.928Z,8.70
2023-05-12T00:23:59.456Z,8.70
2023-05-12T00:24:31.018Z,8.70
2023-05-12T00:25:01.715Z,8.70
2023-05-12T00:25:32.450Z,8.70
2023-05-12T00:26:03.619Z,8.70
2023-05-12T00:26:34.730Z,8.70
2023-05-12T00:27:04.841Z,8.70
2023-05-12T00:27:36.344Z,8.70
2023-05-12T00:28:07.312Z,8.70
2023-05-12T00:28:38.074Z,8.70
2023-05-12T00:29:09.288Z,8.70
2023-05-12T00:29:40.174Z,8.70
2023-05-12T00:30:11.436Z,8.70
2023-05-12T00:30:42.121Z,8.70
2023-05-12T00:31:13.114Z,8.70
2023-05-12T00:31:44.170Z,8.70
2023-05-12T00:32:15.152Z,8.70
2023-05-12T00:32:45.907Z,8.70
2023-05-12T00:33:16.807Z,8.70
2023-05-12T00:33:48.336Z,8.70
2023-05-12T00:34:19.389Z,8.70
2023-05-12T00:34:50.262Z,8.70
2023-05-12T00:35:22.154Z,8.70
2023-05-12T00:35:52.219Z,8.70
2023-05-12T00:36:23.101Z,8.70
2023-05-12T00:36:54.462Z,8.70
2023-05-12T00:37:25.184Z,8.70
2023-05-12T00:37:56.116Z,8.60
2023-05-12T00:38:27.215Z,8.60
2023-05-12T00:38:58.364Z,8.60
2023-05-12T00:39:28.880Z,8.60
2023-05-12T00:40:00.651Z,8.60
2023-05-12T00:40:31.316Z,8.70
2023-05-12T00:41:02.524Z,8.70
2023-05-12T00:41:33.284Z,8.70
2023-05-12T00:42:03.918Z,8.70
2023-05-12T00:42:36.504Z,8.70
2023-05-12T00:43:06.456Z,8.70
2023-05-12T00:43:38.101Z,8.70
2023-05-12T00:44:08.606Z,8.70
2023-05-12T00:44:40.477Z,8.70
2023-05-12T00:45:10.536Z,8.70
2023-05-12T00:45:41.471Z,8.70
2023-05-12T00:46:12.373Z,8.70
2023-05-12T00:46:43.659Z,8.70
2023-05-12T00:47:14.056Z,8.70
2023-05-12T00:47:45.072Z,8.70
2023-05-12T00:48:16.509Z,8.70
2023-05-12T00:48:47.076Z,8.70
2023-05-12T00:49:18.224Z,8.70
2023-05-12T00:49:49.287Z,8.70
2023-05-12T00:50:20.731Z,8.70
2023-05-12T00:50:50.880Z,8.70
2023-05-12T00:51:22.028Z,8.70
2023-05-12T00:51:53.124Z,8.70
2023-05-12T00:52:24.286Z,8.70
2023-05-12T00:52:55.359Z,8.70
2023-05-12T00:53:30.704Z,8.70
2023-05-12T00:53:57.188Z,8.70
2023-05-12T00:54:28.423Z,8.70
2023-05-12T00:54:59.427Z,8.70
2023-05-12T00:55:30.477Z,8.70
2023-05-12T00:56:00.971Z,8.70
2023-05-12T00:56:32.382Z,8.70
2023-05-12T00:57:03.156Z,8.70
2023-05-12T00:57:34.233Z,8.70
2023-05-12T00:58:04.958Z,8.70
2023-05-12T00:58:36.008Z,8.70
2023-05-12T00:59:07.548Z,8.70
2023-05-12T00:59:38.473Z,8.70
2023-05-12T01:00:09.483Z,8.70
2023-05-12T01:00:40.086Z,8.70
2023-05-12T01:01:11.385Z,8.70
2023-05-12T01:01:42.150Z,8.70
2023-05-12T01:02:13.082Z,8.70
2023-05-12T01:02:44.134Z,8.70
2023-05-12T01:03:15.148Z,8.70
2023-05-12T01:03:46.124Z,8.70
2023-05-12T01:04:17.391Z,8.70
2023-05-12T01:04:48.093Z,8.70
2023-05-12T01:05:19.692Z,8.70
2023-05-12T01:05:49.970Z,8.70
2023-05-12T01:06:21.005Z,8.70
2023-05-12T01:06:51.991Z,8.70
2023-05-12T01:07:23.403Z,8.70
2023-05-12T01:07:54.469Z,8.70
2023-05-12T01:08:25.444Z,8.70
2023-05-12T01:08:56.019Z,8.70
2023-05-12T01:09:27.067Z,8.70
2023-05-12T01:09:58.920Z,8.70
2023-05-12T01:10:29.303Z,8.70
2023-05-12T01:11:00.174Z,8.70
2023-05-12T01:11:31.516Z,8.70
2023-05-12T01:12:02.478Z,8.70
2023-05-12T01:12:33.463Z,8.70
2023-05-12T01:13:04.075Z,8.70
2023-05-12T01:13:35.328Z,8.70
2023-05-12T01:14:08.797Z,8.70
2023-05-12T01:14:37.039Z,8.70
2023-05-12T01:15:10.561Z,8.60
2023-05-12T01:15:39.624Z,8.60
2023-05-12T01:16:11.699Z,8.60
2023-05-12T01:16:41.079Z,8.60
2023-05-12T01:17:12.792Z,8.60
2023-05-12T01:17:43.227Z,8.60
2023-05-12T01:18:14.151Z,8.60
2023-05-12T01:18:45.450Z,8.60
2023-05-12T01:19:16.227Z,8.60
2023-05-12T01:19:47.471Z,8.60
2023-05-12T01:20:19.106Z,8.60
2023-05-12T01:20:49.308Z,8.60
2023-05-12T01:21:20.384Z,8.60
2023-05-12T01:21:51.097Z,8.60
2023-05-12T01:22:22.046Z,8.60
2023-05-12T01:22:53.581Z,8.60
2023-05-12T01:23:24.098Z,8.60
2023-05-12T01:23:55.064Z,8.60
2023-05-12T01:24:26.622Z,8.60
2023-05-12T01:24:58.365Z,8.60
2023-05-12T01:25:29.022Z,8.60
2023-05-12T01:25:59.304Z,8.60
2023-05-12T01:26:30.034Z,8.60
2023-05-12T01:27:01.090Z,8.60
2023-05-12T01:27:32.308Z,8.60
2023-05-12T01:28:03.705Z,8.60
2023-05-12T01:28:34.599Z,8.60
2023-05-12T01:29:06.020Z,8.60
2023-05-12T01:29:36.536Z,8.60
2023-05-12T01:30:08.046Z,8.60
2023-05-12T01:30:38.088Z,8.60
2023-05-12T01:31:09.088Z,8.60
2023-05-12T01:31:40.652Z,8.60
2023-05-12T01:32:11.263Z,8.60
2023-05-12T01:32:42.697Z,8.60
2023-05-12T01:33:13.499Z,8.60
2023-05-12T01:33:44.136Z,8.60
2023-05-12T01:34:16.063Z,8.60
2023-05-12T01:34:46.359Z,8.60
2023-05-12T01:35:17.438Z,8.60
2023-05-12T01:35:48.237Z,8.60
2023-05-12T01:36:19.259Z,8.60
2023-05-12T01:36:50.523Z,8.60
2023-05-12T01:37:21.523Z,8.60
2023-05-12T01:37:52.535Z,8.60
2023-05-12T01:38:23.578Z,8.60
2023-05-12T01:38:55.062Z,8.60
2023-05-12T01:39:25.466Z,8.60
2023-05-12T01:39:56.482Z,8.60
2023-05-12T01:40:27.634Z,8.70
2023-05-12T01:40:58.088Z,8.70
2023-05-12T01:41:29.102Z,8.70
2023-05-12T01:42:00.251Z,8.70
2023-05-12T01:42:31.165Z,8.70
2023-05-12T01:43:02.159Z,8.70
2023-05-12T01:43:33.074Z,8.70
2023-05-12T01:44:04.347Z,8.70
2023-05-12T01:44:35.158Z,8.70
2023-05-12T01:45:06.684Z,8.70
2023-05-12T01:45:38.250Z,8.70
2023-05-12T01:46:08.297Z,8.70
2023-05-12T01:46:41.755Z,8.70
2023-05-12T01:47:10.179Z,8.70
2023-05-12T01:47:42.886Z,8.70
2023-05-12T01:48:12.410Z,8.70
2023-05-12T01:48:43.196Z,8.70
2023-05-12T01:49:14.875Z,8.70
2023-05-12T01:49:45.154Z,8.70
2023-05-12T01:50:16.787Z,8.70
2023-05-12T01:50:47.114Z,8.70
2023-05-12T01:51:18.178Z,8.70
2023-05-12T01:51:49.149Z,8.70
2023-05-12T01:52:20.576Z,8.70
2023-05-12T01:52:51.113Z,8.70
2023-05-12T01:53:22.161Z,8.70
2023-05-12T01:53:53.479Z,8.70
2023-05-12T01:54:24.410Z,8.70
2023-05-12T01:54:55.271Z,8.70
2023-05-12T01:55:27.299Z,8.70
2023-05-12T01:55:57.365Z,8.70
2023-05-12T01:56:28.316Z,8.70
2023-05-12T01:56:59.150Z,8.70
2023-05-12T01:57:30.572Z,8.70
2023-05-12T01:58:01.209Z,8.70
2023-05-12T01:58:32.176Z,8.70
2023-05-12T01:59:03.514Z,8.70
2023-05-12T01:59:34.616Z,8.70
2023-05-12T02:00:05.951Z,8.70
2023-05-12T02:00:36.238Z,8.70
2023-05-12T02:01:07.645Z,8.70
2023-05-12T02:01:38.270Z,8.70
2023-05-12T02:02:09.280Z,8.70
2023-05-12T02:02:42.151Z,8.70
2023-05-12T02:03:11.356Z,8.70
2023-05-12T02:03:42.325Z,8.70
2023-05-12T02:04:13.347Z,8.70
2023-05-12T02:04:44.283Z,8.70
2023-05-12T02:05:15.788Z,8.70
2023-05-12T02:05:46.568Z,8.70
2023-05-12T02:06:17.540Z,8.70
2023-05-12T02:06:48.256Z,8.70
2023-05-12T02:07:19.186Z,8.70
2023-05-12T02:07:50.536Z,8.70
2023-05-12T02:08:21.632Z,8.70
2023-05-12T02:08:52.664Z,8.70
2023-05-12T02:09:23.606Z,8.70
2023-05-12T02:09:54.617Z,8.70
2023-05-12T02:10:26.045Z,8.70
2023-05-12T02:10:56.512Z,8.70
2023-05-12T02:11:27.829Z,8.70
2023-05-12T02:11:58.274Z,8.70
2023-05-12T02:12:29.177Z,8.70
2023-05-12T02:13:00.571Z,8.70
2023-05-12T02:13:31.631Z,8.70
2023-05-12T02:14:02.599Z,8.70
2023-05-12T02:14:33.275Z,8.70
2023-05-12T02:15:04.895Z,8.70
2023-05-12T02:15:35.253Z,8.60
2023-05-12T02:16:06.283Z,8.70
2023-05-12T02:16:37.538Z,8.70
2023-05-12T02:17:10.862Z,8.70
2023-05-12T02:17:39.333Z,8.70
2023-05-12T02:18:12.590Z,8.70
2023-05-12T02:18:41.310Z,8.70
2023-05-12T02:19:13.731Z,8.70
2023-05-12T02:19:43.373Z,8.70
2023-05-12T02:20:14.658Z,8.70
2023-05-12T02:20:45.391Z,8.70
2023-05-12T02:21:16.558Z,8.70
2023-05-12T02:21:47.736Z,8.70
2023-05-12T02:22:18.311Z,8.70
2023-05-12T02:22:49.292Z,8.70
2023-05-12T02:23:20.681Z,8.70
2023-05-12T02:23:51.293Z,8.70
2023-05-12T02:24:22.340Z,8.70
2023-05-12T02:24:53.333Z,8.70
2023-05-12T02:25:24.832Z,8.70
2023-05-12T02:25:55.645Z,8.70
2023-05-12T02:26:26.895Z,8.70
2023-05-12T02:26:57.708Z,8.70
2023-05-12T02:27:28.722Z,8.70
2023-05-12T02:27:59.577Z,8.70
2023-05-12T02:28:30.697Z,8.70
2023-05-12T02:29:01.678Z,8.70
2023-05-12T02:29:32.358Z,8.70
2023-05-12T02:30:03.917Z,8.70
2023-05-12T02:30:34.497Z,8.70
2023-05-12T02:31:05.394Z,8.70
2023-05-12T02:31:36.379Z,8.70
2023-05-12T02:32:07.535Z,8.70
2023-05-12T02:32:38.558Z,8.70
2023-05-12T02:33:09.573Z,8.70
2023-05-12T02:33:40.699Z,8.70
2023-05-12T02:34:11.616Z,8.70
2023-05-12T02:34:42.767Z,8.70
2023-05-12T02:35:13.591Z,8.60
2023-05-12T02:35:44.782Z,8.60
2023-05-12T02:36:15.531Z,8.60
2023-05-12T02:36:46.787Z,8.70
2023-05-12T02:37:17.318Z,8.70
2023-05-12T02:37:48.450Z,8.70
2023-05-12T02:38:19.568Z,8.70
2023-05-12T02:38:50.411Z,8.70
2023-05-12T02:39:21.759Z,8.70
2023-05-12T02:39:52.387Z,8.70
2023-05-12T02:40:23.936Z,8.70
2023-05-12T02:40:54.498Z,8.70
2023-05-12T02:41:25.439Z,8.70
2023-05-12T02:41:56.361Z,8.70
2023-05-12T02:42:27.613Z,8.70
2023-05-12T02:42:58.673Z,8.70
2023-05-12T02:43:29.632Z,8.70
2023-05-12T02:44:00.363Z,8.70
2023-05-12T02:44:31.753Z,8.70
2023-05-12T02:45:02.841Z,8.70
2023-05-12T02:45:33.871Z,8.70
2023-05-12T02:46:04.670Z,8.70
2023-05-12T02:46:35.458Z,8.70
2023-05-12T02:47:06.382Z,8.60
2023-05-12T02:47:37.483Z,8.70
2023-05-12T02:48:08.566Z,8.70
2023-05-12T02:48:42.477Z,8.70
2023-05-12T02:49:10.336Z,8.70
2023-05-12T02:49:43.645Z,8.70
2023-05-12T02:50:13.055Z,8.60
2023-05-12T02:50:44.132Z,8.60
2023-05-12T02:51:14.477Z,8.60
2023-05-12T02:51:45.756Z,8.70
2023-05-12T02:52:16.340Z,8.70
2023-05-12T02:52:47.695Z,8.70
2023-05-12T02:53:18.444Z,8.70
2023-05-12T02:53:49.714Z,8.60
2023-05-12T02:54:20.848Z,8.60
2023-05-12T02:54:51.404Z,8.60
2023-05-12T02:55:22.996Z,8.60
2023-05-12T02:55:53.560Z,8.60
2023-05-12T02:56:24.481Z,8.60
2023-05-12T02:56:55.775Z,8.60
2023-05-12T02:57:26.555Z,8.60
2023-05-12T02:57:57.616Z,8.60
2023-05-12T02:58:28.585Z,8.60
2023-05-12T02:58:59.813Z,8.60
2023-05-12T02:59:30.764Z,8.60
2023-05-12T03:00:02.098Z,8.60
2023-05-12T03:00:32.659Z,8.60
2023-05-12T03:01:10.838Z,8.60
2023-05-12T03:01:34.413Z,8.60
2023-05-12T03:02:05.387Z,8.60
2023-05-12T03:02:36.558Z,8.60
2023-05-12T03:03:07.706Z,8.60
2023-05-12T03:03:39.288Z,8.60
2023-05-12T03:04:09.832Z,8.60
2023-05-12T03:04:40.464Z,8.60
2023-05-12T03:05:11.944Z,8.60
2023-05-12T03:05:42.858Z,8.60
2023-05-12T03:06:13.636Z,8.60
2023-05-12T03:06:44.377Z,8.60
2023-05-12T03:07:15.851Z,8.60
2023-05-12T03:07:46.674Z,8.60
2023-05-12T03:08:18.255Z,8.60
2023-05-12T03:08:48.809Z,8.60
2023-05-12T03:09:19.426Z,8.60
2023-05-12T03:09:50.342Z,8.60
2023-05-12T03:10:21.913Z,8.50
2023-05-12T03:10:52.788Z,8.50
2023-05-12T03:11:23.795Z,8.50
2023-05-12T03:11:54.881Z,8.50
2023-05-12T03:12:25.417Z,8.50
2023-05-12T03:12:56.453Z,8.50
2023-05-12T03:13:27.947Z,8.50
2023-05-12T03:13:58.998Z,8.50
2023-05-12T03:14:29.444Z,8.50
2023-05-12T03:15:01.299Z,8.50
2023-05-12T03:15:32.164Z,8.60
2023-05-12T03:16:02.932Z,8.60
2023-05-12T03:16:34.245Z,8.60
2023-05-12T03:17:04.521Z,8.60
2023-05-12T03:17:35.747Z,8.60
2023-05-12T03:18:06.898Z,8.60
2023-05-12T03:18:37.490Z,8.60
2023-05-12T03:19:08.936Z,8.60
2023-05-12T03:19:39.823Z,8.60
2023-05-12T03:20:13.043Z,8.60
2023-05-12T03:20:41.600Z,8.60
2023-05-12T03:21:14.847Z,8.60
2023-05-12T03:21:44.204Z,8.60
2023-05-12T03:22:14.835Z,8.60
2023-05-12T03:22:45.488Z,8.60
2023-05-12T03:23:16.779Z,8.60
2023-05-12T03:23:47.599Z,8.60
2023-05-12T03:24:18.636Z,8.60
2023-05-12T03:24:49.516Z,8.60
2023-05-12T03:25:20.934Z,8.60
2023-05-12T03:25:51.718Z,8.60
2023-05-12T03:26:23.016Z,8.60
2023-05-12T03:26:53.716Z,8.60
2023-05-12T03:27:25.417Z,8.60
2023-05-12T03:27:55.522Z,8.60
2023-05-12T03:28:26.936Z,8.60
2023-05-12T03:28:58.307Z,8.60
2023-05-12T03:29:28.528Z,8.60
2023-05-12T03:29:59.617Z,8.60
2023-05-12T03:30:31.753Z,8.60
2023-05-12T03:31:01.815Z,8.60
2023-05-12T03:31:32.575Z,8.60
2023-05-12T03:32:03.498Z,8.60
2023-05-12T03:32:34.515Z,8.60
2023-05-12T03:33:05.762Z,8.60
2023-05-12T03:33:36.759Z,8.60
2023-05-12T03:34:08.340Z,8.60
2023-05-12T03:34:38.935Z,8.60
2023-05-12T03:35:10.105Z,8.60
2023-05-12T03:35:40.475Z,8.60
2023-05-12T03:36:11.894Z,8.60
2023-05-12T03:36:42.917Z,8.60
2023-05-12T03:37:13.542Z,8.60
2023-05-12T03:37:44.958Z,8.60
2023-05-12T03:38:16.017Z,8.60
2023-05-12T03:38:46.770Z,8.60
2023-05-12T03:39:17.808Z,8.60
2023-05-12T03:39:48.779Z,8.70
2023-05-12T03:40:20.549Z,8.70
2023-05-12T03:40:50.893Z,8.70
2023-05-12T03:41:21.516Z,8.70
2023-05-12T03:41:52.924Z,8.70
2023-05-12T03:42:23.814Z,8.70
2023-05-12T03:42:54.821Z,8.70
2023-05-12T03:43:25.794Z,8.70
2023-05-12T03:43:56.830Z,8.70
2023-05-12T03:44:28.055Z,8.70
2023-05-12T03:44:58.603Z,8.70
2023-05-12T03:45:30.381Z,8.70
2023-05-12T03:46:00.985Z,8.70
2023-05-12T03:46:32.048Z,8.70
2023-05-12T03:47:02.994Z,8.70
2023-05-12T03:47:33.686Z,8.70
2023-05-12T03:48:04.917Z,8.70
2023-05-12T03:48:35.581Z,8.70
2023-05-12T03:49:06.635Z,8.70
2023-05-12T03:49:37.673Z,8.70
2023-05-12T03:50:08.915Z,8.70
2023-05-12T03:50:39.705Z,8.70
2023-05-12T03:51:10.781Z,8.70
2023-05-12T03:51:43.804Z,8.70
2023-05-12T03:52:12.876Z,8.70
2023-05-12T03:52:45.266Z,8.70
2023-05-12T03:53:15.223Z,8.70
2023-05-12T03:53:46.499Z,8.70
2023-05-12T03:54:16.961Z,8.70
2023-05-12T03:54:47.642Z,8.70
2023-05-12T03:55:19.257Z,8.70
2023-05-12T03:55:49.944Z,8.70
2023-05-12T03:56:20.844Z,8.70
2023-05-12T03:56:51.701Z,8.70
2023-05-12T03:57:22.769Z,8.70
2023-05-12T03:57:53.744Z,8.70
2023-05-12T03:58:24.835Z,8.70
2023-05-12T03:58:56.003Z,8.70
2023-05-12T03:59:26.655Z,8.70
2023-05-12T03:59:58.575Z,8.70
2023-05-12T04:00:29.511Z,8.70
2023-05-12T04:01:00.193Z,8.70
2023-05-12T04:01:30.780Z,8.70
2023-05-12T04:02:02.021Z,8.70
2023-05-12T04:02:33.274Z,8.70
2023-05-12T04:03:04.191Z,8.70
2023-05-12T04:03:34.763Z,8.70
2023-05-12T04:04:06.022Z,8.70
2023-05-12T04:04:36.887Z,8.70
2023-05-12T04:05:08.467Z,8.70
2023-05-12T04:05:39.169Z,8.70
2023-05-12T04:06:09.646Z,8.70
2023-05-12T04:06:40.767Z,8.70
2023-05-12T04:07:11.714Z,8.70
2023-05-12T04:07:43.488Z,8.70
2023-05-12T04:08:14.384Z,8.70
2023-05-12T04:08:44.931Z,8.70
2023-05-12T04:09:16.518Z,8.70
2023-05-12T04:09:46.722Z,8.70
2023-05-12T04:10:18.930Z,8.70
2023-05-12T04:10:48.843Z,8.70
2023-05-12T04:11:19.799Z,8.70
2023-05-12T04:11:50.746Z,8.70
2023-05-12T04:12:21.862Z,8.70
2023-05-12T04:12:52.984Z,8.70
2023-05-12T04:13:23.649Z,8.70
2023-05-12T04:13:54.724Z,8.70
2023-05-12T04:14:35.135Z,8.70
2023-05-12T04:14:56.779Z,8.70
2023-05-12T04:15:28.546Z,8.70
2023-05-12T04:15:58.619Z,8.70
2023-05-12T04:16:29.859Z,8.70
2023-05-12T04:17:00.914Z,8.70
2023-05-12T04:17:32.085Z,8.70
2023-05-12T04:18:03.091Z,8.70
2023-05-12T04:18:34.122Z,8.70
2023-05-12T04:19:05.173Z,8.80
2023-05-12T04:19:36.221Z,8.80
2023-05-12T04:20:07.074Z,8.80
2023-05-12T04:20:37.708Z,8.80
2023-05-12T04:21:08.761Z,8.80
2023-05-12T04:21:39.940Z,8.80
2023-05-12T04:22:10.796Z,8.80
2023-05-12T04:22:41.758Z,8.80
2023-05-12T04:23:15.058Z,8.80
2023-05-12T04:23:43.797Z,8.90
2023-05-12T04:24:16.851Z,8.90
2023-05-12T04:24:46.101Z,8.90
2023-05-12T04:25:17.695Z,8.90
2023-05-12T04:25:47.742Z,8.90
2023-05-12T04:26:19.029Z,8.90
2023-05-12T04:26:50.096Z,8.90
2023-05-12T04:27:21.099Z,8.90
2023-05-12T04:27:51.957Z,8.90
2023-05-12T04:28:23.058Z,8.90
2023-05-12T04:28:53.920Z,8.90
2023-05-12T04:29:25.043Z,8.90
2023-05-12T04:29:56.355Z,8.90
2023-05-12T04:30:27.572Z,8.90
2023-05-12T04:30:58.358Z,9.00
2023-05-12T04:31:28.771Z,9.00
2023-05-12T04:31:59.815Z,9.00
2023-05-12T04:32:30.858Z,9.00
2023-05-12T04:33:01.861Z,9.00
2023-05-12T04:33:32.830Z,9.00
2023-05-12T04:34:03.894Z,9.00
2023-05-12T04:34:34.809Z,9.00
2023-05-12T04:35:06.632Z,9.00
2023-05-12T04:35:36.918Z,9.00
2023-05-12T04:36:08.110Z,9.00
2023-05-12T04:36:39.024Z,9.00
2023-05-12T04:37:10.280Z,9.00
2023-05-12T04:37:41.050Z,9.00
2023-05-12T04:38:12.066Z,9.00
2023-05-12T04:38:42.839Z,9.10
2023-05-12T04:39:14.397Z,9.10
2023-05-12T04:39:44.846Z,9.10
2023-05-12T04:40:16.690Z,9.10
2023-05-12T04:40:47.063Z,9.10
2023-05-12T04:41:17.927Z,9.10
2023-05-12T04:41:48.909Z,9.10
2023-05-12T04:42:19.940Z,9.10
2023-05-12T04:42:51.096Z,9.10
2023-05-12T04:44:24.486Z,9.10
2023-05-12T04:44:54.801Z,9.10
2023-05-12T04:45:27.565Z,9.10
2023-05-12T04:45:58.610Z,9.10
2023-05-12T04:46:27.843Z,9.10
2023-05-12T04:46:58.931Z,9.10
2023-05-12T04:47:30.483Z,9.20
2023-05-12T04:48:00.939Z,9.20
2023-05-12T04:48:32.074Z,9.20
2023-05-12T04:49:03.125Z,9.20
2023-05-12T04:49:34.197Z,9.20
2023-05-12T04:50:05.770Z,9.20
2023-05-12T04:50:36.190Z,9.20
2023-05-12T04:51:06.838Z,9.20
2023-05-12T04:51:38.200Z,9.20
2023-05-12T04:52:08.872Z,9.20
2023-05-12T04:52:40.096Z,9.20
2023-05-12T04:53:11.497Z,9.20
2023-05-12T04:53:41.970Z,9.20
2023-05-12T04:54:13.123Z,9.20
2023-05-12T04:54:46.232Z,9.20
2023-05-12T04:55:15.737Z,9.20
2023-05-12T04:55:48.343Z,9.20
2023-05-12T04:56:16.941Z,9.20
2023-05-12T04:56:47.860Z,9.20
2023-05-12T04:57:18.885Z,9.20
2023-05-12T04:57:50.149Z,9.30
2023-05-12T04:58:21.179Z,9.30
2023-05-12T04:58:51.992Z,9.30
2023-05-12T04:59:23.287Z,9.30
2023-05-12T04:59:54.145Z,9.30
2023-05-12T05:00:25.935Z,9.30
2023-05-12T05:00:56.477Z,9.30
2023-05-12T05:01:27.116Z,9.30
2023-05-12T05:01:58.165Z,9.40
2023-05-12T05:02:29.269Z,9.40
2023-05-12T05:03:00.371Z,9.40
2023-05-12T05:03:31.239Z,9.40
2023-05-12T05:04:02.244Z,9.40
2023-05-12T05:04:33.949Z,9.40
2023-05-12T05:05:04.177Z,9.40
2023-05-12T05:05:35.719Z,9.40
2023-05-12T05:06:06.336Z,9.40
2023-05-12T05:06:37.158Z,9.40
2023-05-12T05:07:08.119Z,9.40
2023-05-12T05:07:39.253Z,9.40
2023-05-12T05:08:09.858Z,9.40
2023-05-12T05:08:40.901Z,9.40
2023-05-12T05:09:11.879Z,9.40
2023-05-12T05:09:42.862Z,9.40
2023-05-12T05:10:14.578Z,9.40
2023-05-12T05:10:44.865Z,9.40
2023-05-12T05:11:16.563Z,9.40
2023-05-12T05:11:46.898Z,9.40
2023-05-12T05:12:17.946Z,9.40
2023-05-12T05:12:49.059Z,9.40
2023-05-12T05:13:20.089Z,9.40
2023-05-12T05:13:50.925Z,9.40
2023-05-12T05:14:22.180Z,9.40
2023-05-12T05:14:53.258Z,9.40
2023-05-12T05:15:24.797Z,9.40
2023-05-12T05:15:55.210Z,9.40
2023-05-12T05:16:25.921Z,9.40
2023-05-12T05:16:57.073Z,9.40
2023-05-12T05:17:27.965Z,9.40
2023-05-12T05:18:00.761Z,9.40
2023-05-12T05:18:30.146Z,9.40
2023-05-12T05:19:05.898Z,9.40
2023-05-12T05:19:46.230Z,9.50
2023-05-12T05:20:07.177Z,9.50
2023-05-12T05:20:34.869Z,9.50
2023-05-12T05:21:05.533Z,9.50
2023-05-12T05:21:36.040Z,9.50
2023-05-12T05:22:06.918Z,9.50
2023-05-12T05:22:38.019Z,9.50
2023-05-12T05:23:09.181Z,9.50
2023-05-12T05:23:40.121Z,9.50
2023-05-12T05:24:11.197Z,9.50
2023-05-12T05:24:42.175Z,9.50
2023-05-12T05:25:13.240Z,9.50
2023-05-12T05:25:43.933Z,9.50
2023-05-12T05:26:17.206Z,9.50
2023-05-12T05:26:45.925Z,9.50
2023-05-12T05:27:18.324Z,9.50
2023-05-12T05:27:47.870Z,9.60
2023-05-12T05:28:19.373Z,9.60
2023-05-12T05:28:50.182Z,9.60
2023-05-12T05:29:21.398Z,9.60
2023-05-12T05:29:52.381Z,9.60
2023-05-12T05:30:23.723Z,9.60
2023-05-12T05:30:53.983Z,9.60
2023-05-12T05:31:25.629Z,9.60
2023-05-12T05:31:56.043Z,9.60
2023-05-12T05:32:27.074Z,9.60
2023-05-12T05:32:58.010Z,9.60
2023-05-12T05:33:29.026Z,9.60
2023-05-12T05:34:00.354Z,9.60
2023-05-12T05:34:31.476Z,9.60
2023-05-12T05:35:02.605Z,9.60
2023-05-12T05:35:33.279Z,9.60
2023-05-12T05:36:04.362Z,9.50
2023-05-12T05:36:35.213Z,9.50
2023-05-12T05:37:06.012Z,9.50
2023-05-12T05:37:37.081Z,9.50
2023-05-12T05:38:08.347Z,9.50
2023-05-12T05:38:39.163Z,9.50
2023-05-12T05:39:10.427Z,9.50
2023-05-12T05:39:41.099Z,9.50
2023-05-12T05:40:13.011Z,9.50
2023-05-12T05:40:52.968Z,9.50
2023-05-12T05:41:14.281Z,9.50
2023-05-12T05:41:45.607Z,9.50
2023-05-12T05:42:16.098Z,9.50
2023-05-12T05:42:47.297Z,9.50
2023-05-12T05:43:18.298Z,9.50
2023-05-12T05:43:49.019Z,9.50
2023-05-12T05:44:20.369Z,9.50
2023-05-12T05:44:51.235Z,9.50
2023-05-12T05:45:23.065Z,9.50
2023-05-12T05:45:53.416Z,9.50
2023-05-12T05:46:24.361Z,9.50
2023-05-12T05:46:55.336Z,9.50
2023-05-12T05:47:26.049Z,9.50
2023-05-12T05:47:57.346Z,9.60
2023-05-12T05:48:28.365Z,9.60
2023-05-12T05:48:59.063Z,9.60
2023-05-12T05:49:29.983Z,9.60
2023-05-12T05:50:01.146Z,9.60
2023-05-12T05:50:32.257Z,9.60
2023-05-12T05:51:03.023Z,9.70
2023-05-12T05:51:34.138Z,9.70
2023-05-12T05:52:05.262Z,9.70
2023-05-12T05:52:36.242Z,9.70
2023-05-12T05:53:07.294Z,9.70
2023-05-12T05:53:38.185Z,9.70
2023-05-12T05:54:09.247Z,9.70
2023-05-12T05:54:40.261Z,9.70
2023-05-12T05:55:11.588Z,9.70
2023-05-12T05:55:42.028Z,9.70
2023-05-12T05:56:13.053Z,9.70
2023-05-12T05:56:44.000Z,9.70
2023-05-12T05:57:15.420Z,9.70
2023-05-12T05:57:48.498Z,9.60
2023-05-12T05:58:17.045Z,9.60
2023-05-12T05:58:50.542Z,9.60
2023-05-12T05:59:19.216Z,9.60
2023-05-12T05:59:51.455Z,9.60
2023-05-12T06:00:21.947Z,9.60
2023-05-12T06:00:52.643Z,9.60
2023-05-12T06:01:23.371Z,9.60
2023-05-12T06:01:54.129Z,9.60
2023-05-12T06:02:25.512Z,9.60
2023-05-12T06:02:56.465Z,9.60
2023-05-12T06:03:27.451Z,9.60
2023-05-12T06:03:58.653Z,9.60
2023-05-12T06:04:29.577Z,9.70
2023-05-12T06:05:00.081Z,9.70
2023-05-12T06:05:31.373Z,9.70
2023-05-12T06:06:02.554Z,9.70
2023-05-12T06:06:33.370Z,9.70
2023-05-12T06:07:04.112Z,9.70
2023-05-12T06:07:36.042Z,9.70
2023-05-12T06:08:06.121Z,9.70
2023-05-12T06:08:37.221Z,9.70
2023-05-12T06:09:08.499Z,9.70
2023-05-12T06:09:39.154Z,9.70
2023-05-12T06:10:10.331Z,9.70
2023-05-12T06:10:41.331Z,9.70
2023-05-12T06:11:12.100Z,9.80
2023-05-12T06:11:43.437Z,9.80
2023-05-12T06:12:14.599Z,9.80
2023-05-12T06:12:45.114Z,9.80
2023-05-12T06:13:30.928Z,9.80
2023-05-12T06:13:47.361Z,9.80
2023-05-12T06:14:18.488Z,9.80
2023-05-12T06:14:49.713Z,9.80
2023-05-12T06:15:20.986Z,9.80
2023-05-12T06:15:51.204Z,9.80
2023-05-12T06:16:22.456Z,9.80
2023-05-12T06:16:53.567Z,9.90
2023-05-12T06:17:24.176Z,9.90
2023-05-12T06:17:55.391Z,9.90
2023-05-12T06:18:26.375Z,9.80
2023-05-12T06:18:58.052Z,9.80
2023-05-12T06:19:28.033Z,9.70
2023-05-12T06:19:59.189Z,9.70
2023-05-12T06:20:30.814Z,9.70
2023-05-12T06:21:01.241Z,9.80
2023-05-12T06:21:32.471Z,9.80
2023-05-12T06:22:03.546Z,9.80
2023-05-12T06:22:34.143Z,9.90
2023-05-12T06:23:05.152Z,9.90
2023-05-12T06:23:36.582Z,9.90
2023-05-12T06:24:07.648Z,9.90
2023-05-12T06:24:38.556Z,9.90
2023-05-12T06:25:09.697Z,9.80
2023-05-12T06:25:40.151Z,9.80
2023-05-12T06:26:11.120Z,9.80
2023-05-12T06:26:42.333Z,9.80
2023-05-12T06:27:13.478Z,9.80
2023-05-12T06:27:44.446Z,9.70
2023-05-12T06:28:15.521Z,9.70
2023-05-12T06:28:46.138Z,9.70
2023-05-12T06:29:19.480Z,9.70
2023-05-12T06:29:48.162Z,9.70
2023-05-12T06:30:22.028Z,9.70
2023-05-12T06:30:50.076Z,9.80
2023-05-12T06:31:22.461Z,9.80
2023-05-12T06:31:52.707Z,9.80
2023-05-12T06:32:23.446Z,9.80
2023-05-12T06:32:54.286Z,9.80
2023-05-12T06:33:25.274Z,9.80
2023-05-12T06:33:56.236Z,9.90
2023-05-12T06:34:27.459Z,9.90
2023-05-12T06:34:58.206Z,9.90
2023-05-12T06:35:29.791Z,9.90
2023-05-12T06:36:00.284Z,9.90
2023-05-12T06:36:31.567Z,9.80
2023-05-12T06:37:02.617Z,9.70
2023-05-12T06:37:33.357Z,9.70
2023-05-12T06:38:04.555Z,9.70
2023-05-12T06:38:36.245Z,9.70
2023-05-12T06:39:06.582Z,9.70
2023-05-12T06:39:37.325Z,9.80
2023-05-12T06:40:08.545Z,9.80
2023-05-12T06:40:39.236Z,9.80
2023-05-12T06:41:10.718Z,9.80
2023-05-12T06:41:41.196Z,9.80
2023-05-12T06:42:12.485Z,9.90
2023-05-12T06:42:43.319Z,9.90
2023-05-12T06:43:14.458Z,9.90
2023-05-12T06:43:46.112Z,9.80
2023-05-12T06:44:16.679Z,9.80
2023-05-12T06:44:47.653Z,9.80
2023-05-12T06:45:19.305Z,9.70
2023-05-12T06:45:49.329Z,9.60
2023-05-12T06:46:20.508Z,9.60
2023-05-12T06:46:51.707Z,9.60
2023-05-12T06:47:22.447Z,9.60
2023-05-12T06:47:53.420Z,9.60
2023-05-12T06:48:24.400Z,9.60
2023-05-12T06:48:55.653Z,9.60
2023-05-12T06:49:26.164Z,9.60
2023-05-12T06:49:57.576Z,9.60
2023-05-12T06:50:28.985Z,9.60
2023-05-12T06:50:59.483Z,9.60
2023-05-12T06:51:31.137Z,9.60
2023-05-12T06:52:01.443Z,9.60
2023-05-12T06:52:32.463Z,9.40
2023-05-12T06:53:03.468Z,9.40
2023-05-12T06:53:34.400Z,9.40